createdAt,value
2019-01-25T00:00:40.359Z,24.90
2019-01-25T00:03:10.550Z,23.47
2019-01-25T00:05:37.590Z,27.93
2019-01-25T00:08:04.529Z,30.62
2019-01-25T00:10:31.582Z,24.70
2019-01-25T00:12:58.524Z,28.00
2019-01-25T00:15:25.426Z,29.80
2019-01-25T00:17:51.958Z,26.97
2019-01-25T00:20:18.788Z,28.40
2019-01-25T00:22:49.998Z,25.67
2019-01-25T00:25:17.947Z,21.55
2019-01-25T00:27:56.423Z,27.17
2019-01-25T00:30:25.364Z,28.95
2019-01-25T00:32:52.889Z,28.27
2019-01-25T00:35:19.615Z,30.00
2019-01-25T00:37:46.094Z,26.95
2019-01-25T00:40:19.807Z,27.15
2019-01-25T00:42:46.355Z,28.42
2019-01-25T00:45:14.712Z,26.23
2019-01-25T00:47:42.277Z,28.77
2019-01-25T00:50:18.176Z,24.17
2019-01-25T00:52:57.196Z,26.87
2019-01-25T00:55:29.154Z,22.57
2019-01-25T00:57:55.941Z,25.07
2019-01-25T01:00:25.881Z,24.85
2019-01-25T01:02:54.455Z,24.25
2019-01-25T01:05:21.588Z,21.45
2019-01-25T01:07:51.778Z,20.92
2019-01-25T01:10:19.509Z,20.30
2019-01-25T01:12:46.258Z,20.40
2019-01-25T01:15:14.155Z,21.87
2019-01-25T01:17:50.879Z,23.02
2019-01-25T01:20:19.715Z,19.12
2019-01-25T01:22:48.526Z,19.05
2019-01-25T01:25:15.548Z,20.68
2019-01-25T01:27:43.309Z,19.62
2019-01-25T01:30:16.006Z,22.07
2019-01-25T01:32:42.535Z,16.97
2019-01-25T01:35:10.194Z,19.55
2019-01-25T01:37:40.934Z,19.07
2019-01-25T01:40:22.108Z,18.32
2019-01-25T01:42:53.274Z,21.75
2019-01-25T01:45:21.411Z,25.10
2019-01-25T01:47:49.114Z,18.03
2019-01-25T01:50:17.443Z,20.60
2019-01-25T01:52:47.486Z,18.70
2019-01-25T01:55:14.565Z,17.77
2019-01-25T01:57:41.478Z,18.03
2019-01-25T02:00:17.186Z,18.50
2019-01-25T02:02:45.135Z,15.68
2019-01-25T02:05:17.180Z,21.02
2019-01-25T02:07:45.874Z,20.67
2019-01-25T02:10:29.037Z,20.90
2019-01-25T02:12:50.779Z,21.73
2019-01-25T02:15:19.024Z,20.80
2019-01-25T02:17:45.838Z,23.20
2019-01-25T02:20:24.070Z,21.37
2019-01-25T02:22:50.806Z,21.13
2019-01-25T02:25:17.806Z,18.17
2019-01-25T02:27:44.675Z,18.30
2019-01-25T02:30:20.010Z,20.80
2019-01-25T02:32:48.920Z,20.50
2019-01-25T02:35:16.151Z,21.48
2019-01-25T02:37:43.821Z,22.10
2019-01-25T02:40:17.068Z,21.37
2019-01-25T02:42:44.074Z,22.07
2019-01-25T02:45:13.150Z,20.90
2019-01-25T02:47:40.267Z,23.62
2019-01-25T02:50:12.765Z,18.90
2019-01-25T02:52:39.426Z,23.75
2019-01-25T02:55:08.167Z,19.73
2019-01-25T02:57:35.148Z,21.87
2019-01-25T03:00:04.004Z,19.25
2019-01-25T03:02:31.226Z,18.82
2019-01-25T03:04:58.028Z,19.07
2019-01-25T03:07:24.750Z,17.87
2019-01-25T03:10:13.518Z,20.27
2019-01-25T03:12:40.176Z,24.20
2019-01-25T03:15:11.322Z,21.87
2019-01-25T03:17:42.536Z,20.23
2019-01-25T03:20:11.976Z,23.00
2019-01-25T03:22:38.738Z,19.60
2019-01-25T03:25:11.827Z,23.10
2019-01-25T03:27:39.671Z,20.35
2019-01-25T03:30:10.113Z,24.82
2019-01-25T03:32:40.925Z,20.83
2019-01-25T03:35:10.532Z,20.25
2019-01-25T03:37:38.460Z,21.05
2019-01-25T03:40:10.035Z,20.30
2019-01-25T03:42:38.794Z,23.25
2019-01-25T03:45:07.181Z,21.60
2019-01-25T03:47:33.690Z,23.30
2019-01-25T03:50:01.455Z,22.67
2019-01-25T03:52:28.012Z,24.67
2019-01-25T03:54:59.098Z,23.60
2019-01-25T03:57:30.379Z,21.73
2019-01-25T03:59:56.978Z,23.30
2019-01-25T04:02:23.786Z,19.30
2019-01-25T04:04:50.564Z,20.87
2019-01-25T04:07:21.475Z,18.87
2019-01-25T04:09:51.800Z,20.80
2019-01-25T04:12:19.671Z,21.40
2019-01-25T04:14:47.546Z,20.35
2019-01-25T04:17:17.768Z,20.23
2019-01-25T04:19:44.606Z,21.67
2019-01-25T04:22:16.559Z,20.48
2019-01-25T04:24:43.319Z,21.68
2019-01-25T04:27:10.975Z,22.27
2019-01-25T04:29:42.940Z,25.27
2019-01-25T04:32:09.848Z,23.67
2019-01-25T04:34:36.390Z,20.80
2019-01-25T04:37:05.271Z,22.63
2019-01-25T04:39:32.770Z,22.42
2019-01-25T04:42:10.503Z,24.18
2019-01-25T04:44:38.343Z,20.35
2019-01-25T04:47:05.321Z,22.60
2019-01-25T04:49:34.595Z,21.45
2019-01-25T04:52:01.414Z,22.05
2019-01-25T04:54:28.163Z,22.75
2019-01-25T04:56:56.723Z,18.42
2019-01-25T04:59:28.057Z,17.53
2019-01-25T05:01:55.713Z,21.30
2019-01-25T05:04:22.555Z,21.10
2019-01-25T05:06:49.134Z,21.42
2019-01-25T05:09:15.808Z,25.90
2019-01-25T05:11:42.607Z,23.15
2019-01-25T05:14:10.432Z,19.70
2019-01-25T05:16:38.329Z,23.50
2019-01-25T05:19:05.175Z,19.90
2019-01-25T05:21:31.718Z,20.30
2019-01-25T05:23:58.428Z,20.35
2019-01-25T05:26:25.290Z,18.65
2019-01-25T05:28:57.044Z,22.95
2019-01-25T05:31:29.111Z,20.70
2019-01-25T05:33:56.641Z,19.40
2019-01-25T05:36:27.612Z,25.97
2019-01-25T05:38:56.200Z,22.13
2019-01-25T05:41:33.122Z,19.70
2019-01-25T05:44:01.042Z,20.37
2019-01-25T05:46:30.668Z,18.67
2019-01-25T05:48:57.425Z,27.57
2019-01-25T05:51:33.444Z,24.13
2019-01-25T05:53:55.731Z,26.00
2019-01-25T05:56:24.696Z,18.10
2019-01-25T05:58:51.312Z,21.63
2019-01-25T06:01:18.962Z,23.50
2019-01-25T06:03:46.743Z,19.20
2019-01-25T06:06:16.575Z,18.87
2019-01-25T06:08:44.237Z,21.17
2019-01-25T06:11:11.455Z,20.00
2019-01-25T06:13:44.402Z,23.50
2019-01-25T06:16:13.059Z,22.60
2019-01-25T06:18:45.110Z,19.23
2019-01-25T06:21:12.797Z,17.05
2019-01-25T06:23:44.318Z,18.70
2019-01-25T06:26:16.219Z,17.60
2019-01-25T06:28:48.060Z,17.63
2019-01-25T06:31:18.127Z,16.37
2019-01-25T06:33:44.957Z,16.35
2019-01-25T06:36:12.684Z,16.15
2019-01-25T06:38:40.618Z,15.32
2019-01-25T06:41:08.718Z,12.75
2019-01-25T06:43:36.383Z,16.85
2019-01-25T06:46:03.200Z,13.25
2019-01-25T06:48:30.246Z,16.90
2019-01-25T06:50:57.809Z,18.03
2019-01-25T06:53:24.820Z,15.27
2019-01-25T06:55:51.399Z,18.47
2019-01-25T06:58:25.928Z,17.60
2019-01-25T07:00:57.659Z,14.37
2019-01-25T07:03:24.161Z,14.90
2019-01-25T07:05:50.816Z,14.65
2019-01-25T07:08:19.159Z,15.78
2019-01-25T07:10:45.987Z,15.88
2019-01-25T07:13:14.698Z,15.50
2019-01-25T07:15:41.159Z,13.70
2019-01-25T07:18:08.994Z,15.05
2019-01-25T07:20:36.084Z,14.57
2019-01-25T07:23:03.754Z,16.43
2019-01-25T07:25:30.503Z,13.30
2019-01-25T07:27:57.063Z,14.93
2019-01-25T07:30:24.663Z,14.38
2019-01-25T07:32:51.347Z,19.27
2019-01-25T07:35:17.899Z,15.75
2019-01-25T07:37:44.760Z,14.40
2019-01-25T07:40:11.419Z,17.32
2019-01-25T07:42:38.317Z,18.48
2019-01-25T07:45:08.833Z,17.35
2019-01-25T07:47:37.383Z,17.95
2019-01-25T07:50:08.737Z,13.78
2019-01-25T07:52:35.370Z,16.75
2019-01-25T07:55:09.436Z,15.85
2019-01-25T07:57:36.122Z,17.00
2019-01-25T08:00:05.775Z,16.27
2019-01-25T08:02:32.252Z,18.30
2019-01-25T08:04:59.088Z,16.48
2019-01-25T08:07:26.740Z,17.35
2019-01-25T08:09:53.294Z,18.77
2019-01-25T08:12:19.832Z,16.65
2019-01-25T08:14:46.492Z,16.60
2019-01-25T08:17:14.335Z,17.60
2019-01-25T08:19:41.241Z,18.30
2019-01-25T08:22:08.924Z,16.02
2019-01-25T08:24:36.707Z,15.03
2019-01-25T08:27:03.264Z,18.37
2019-01-25T08:29:33.479Z,19.23
2019-01-25T08:32:06.165Z,16.00
2019-01-25T08:34:35.094Z,18.65
2019-01-25T08:37:01.732Z,18.23
2019-01-25T08:39:28.277Z,21.40
2019-01-25T08:42:00.014Z,18.00
2019-01-25T08:44:28.625Z,21.82
2019-01-25T08:46:59.782Z,20.32
2019-01-25T08:49:27.686Z,23.42
2019-01-25T08:51:54.341Z,30.40
2019-01-25T08:54:22.159Z,26.15
2019-01-25T08:56:50.047Z,27.47
2019-01-25T08:59:16.935Z,24.20
2019-01-25T09:01:45.813Z,22.87
2019-01-25T09:04:13.375Z,24.35
2019-01-25T09:06:41.165Z,22.80
2019-01-25T09:09:09.185Z,21.90
2019-01-25T09:11:37.163Z,22.02
2019-01-25T09:14:08.919Z,21.10
2019-01-25T09:16:35.796Z,26.90
2019-01-25T09:19:03.798Z,22.20
2019-01-25T09:21:31.738Z,21.97
2019-01-25T09:23:58.158Z,20.13
2019-01-25T09:26:24.732Z,22.57
2019-01-25T09:28:52.625Z,24.43
2019-01-25T09:31:28.246Z,23.45
2019-01-25T09:33:57.213Z,22.25
2019-01-25T09:36:23.779Z,22.50
2019-01-25T09:38:51.073Z,23.77
2019-01-25T09:41:17.623Z,23.23
2019-01-25T09:43:44.303Z,23.20
2019-01-25T09:46:11.155Z,26.87
2019-01-25T09:48:38.346Z,24.27
2019-01-25T09:51:05.161Z,22.50
2019-01-25T09:53:32.116Z,23.27
2019-01-25T09:55:59.528Z,24.50
2019-01-25T09:58:26.840Z,26.47
2019-01-25T10:00:59.827Z,24.97
2019-01-25T10:03:26.630Z,22.17
2019-01-25T10:05:55.249Z,26.30
2019-01-25T10:08:21.949Z,25.33
2019-01-25T10:10:48.585Z,24.37
2019-01-25T10:13:15.266Z,24.23
2019-01-25T10:15:41.831Z,24.70
2019-01-25T10:18:08.408Z,22.57
2019-01-25T10:20:35.381Z,21.53
2019-01-25T10:23:02.009Z,23.80
2019-01-25T10:25:28.909Z,21.83
2019-01-25T10:27:56.166Z,23.53
2019-01-25T10:30:26.839Z,23.50
2019-01-25T10:32:53.894Z,23.73
2019-01-25T10:35:22.696Z,19.97
2019-01-25T10:37:51.465Z,22.07
2019-01-25T10:40:21.711Z,22.77
2019-01-25T10:42:53.497Z,21.77
2019-01-25T10:45:36.851Z,19.67
2019-01-25T10:48:05.562Z,20.70
2019-01-25T10:50:40.371Z,20.30
2019-01-25T10:53:09.362Z,22.40
2019-01-25T10:55:36.191Z,20.97
2019-01-25T10:58:08.106Z,23.20
2019-01-25T11:00:36.288Z,23.40
2019-01-25T11:03:05.761Z,22.40
2019-01-25T11:05:37.524Z,22.77
2019-01-25T11:08:05.354Z,22.27
2019-01-25T11:10:33.049Z,21.93
2019-01-25T11:13:04.168Z,20.63
2019-01-25T11:15:31.150Z,22.43
2019-01-25T11:18:02.860Z,20.63
2019-01-25T11:20:29.763Z,20.90
2019-01-25T11:22:56.600Z,21.23
2019-01-25T11:25:29.863Z,21.07
2019-01-25T11:27:56.801Z,21.20
2019-01-25T11:30:23.691Z,19.27
2019-01-25T11:32:52.346Z,20.27
2019-01-25T11:35:18.958Z,21.07
2019-01-25T11:37:45.776Z,18.80
2019-01-25T11:40:21.381Z,21.47
2019-01-25T11:42:48.096Z,24.43
2019-01-25T11:45:18.407Z,23.13
2019-01-25T11:47:46.731Z,18.53
2019-01-25T11:50:19.228Z,19.33
2019-01-25T11:52:47.969Z,19.20
2019-01-25T11:55:17.921Z,20.07
2019-01-25T11:57:45.759Z,20.37
2019-01-25T12:00:17.507Z,19.07
2019-01-25T12:02:44.337Z,19.57
2019-01-25T12:05:14.435Z,19.73
2019-01-25T12:07:44.365Z,19.40
2019-01-25T12:10:15.600Z,18.00
2019-01-25T12:12:44.213Z,32.83
2019-01-25T12:15:13.336Z,20.53
2019-01-25T12:17:40.497Z,18.53
2019-01-25T12:20:20.431Z,19.77
2019-01-25T12:22:46.983Z,19.27
2019-01-25T12:25:13.518Z,19.50
2019-01-25T12:27:41.121Z,21.30
2019-01-25T12:30:11.971Z,17.70
2019-01-25T12:32:39.075Z,18.83
2019-01-25T12:35:11.632Z,19.03
2019-01-25T12:37:38.379Z,19.60
2019-01-25T12:40:08.978Z,19.23
2019-01-25T12:42:37.135Z,20.87
2019-01-25T12:45:09.007Z,22.17
2019-01-25T12:47:37.017Z,20.47
2019-01-25T12:50:17.457Z,22.10
2019-01-25T12:52:45.504Z,21.07
2019-01-25T12:55:12.274Z,18.23
2019-01-25T12:57:39.971Z,19.17
2019-01-25T13:00:16.296Z,21.23
2019-01-25T13:02:44.049Z,21.17
2019-01-25T13:05:15.018Z,21.17
2019-01-25T13:07:41.900Z,20.60
2019-01-25T13:10:14.916Z,19.00
2019-01-25T13:12:41.836Z,18.87
2019-01-25T13:15:10.560Z,21.63
2019-01-25T13:17:39.869Z,19.07
2019-01-25T13:20:18.421Z,21.57
2019-01-25T13:22:45.491Z,20.37
2019-01-25T13:25:13.611Z,19.67
2019-01-25T13:27:42.677Z,19.10
2019-01-25T13:30:17.339Z,19.63
2019-01-25T13:32:45.365Z,17.90
2019-01-25T13:35:12.286Z,19.03
2019-01-25T13:37:39.351Z,19.43
2019-01-25T13:40:11.057Z,21.93
2019-01-25T13:42:38.204Z,19.60
2019-01-25T13:45:08.555Z,21.00
2019-01-25T13:47:35.719Z,18.93
2019-01-25T13:50:05.701Z,19.43
2019-01-25T13:52:34.882Z,19.13
2019-01-25T13:55:01.963Z,20.70
2019-01-25T13:57:28.583Z,19.30
2019-01-25T13:59:57.276Z,20.33
2019-01-25T14:02:28.434Z,19.77
2019-01-25T14:05:04.378Z,18.27
2019-01-25T14:07:31.127Z,19.97
2019-01-25T14:09:58.235Z,19.97
2019-01-25T14:12:27.072Z,18.67
2019-01-25T14:14:54.953Z,18.83
2019-01-25T14:17:22.117Z,19.47
2019-01-25T14:19:52.875Z,21.40
2019-01-25T14:22:19.855Z,20.10
2019-01-25T14:24:47.460Z,21.00
2019-01-25T14:27:15.632Z,19.50
2019-01-25T14:29:42.512Z,20.83
2019-01-25T14:32:09.409Z,19.40
2019-01-25T14:34:37.472Z,19.30
2019-01-25T14:37:05.128Z,19.97
2019-01-25T14:39:37.820Z,20.80
2019-01-25T14:42:10.679Z,108.23
2019-01-25T14:44:39.562Z,35.10
2019-01-25T14:47:07.559Z,22.03
2019-01-25T14:49:37.470Z,19.80
2019-01-25T14:52:05.251Z,21.07
2019-01-25T14:54:33.773Z,24.33
2019-01-25T14:57:01.378Z,21.23
2019-01-25T14:59:39.683Z,18.40
2019-01-25T15:02:08.253Z,20.90
2019-01-25T15:04:36.178Z,21.97
2019-01-25T15:07:05.092Z,21.40
2019-01-25T15:09:31.647Z,20.63
2019-01-25T15:11:59.610Z,20.07
2019-01-25T15:14:28.660Z,23.93
2019-01-25T15:16:55.538Z,17.70
2019-01-25T15:19:23.112Z,18.97
2019-01-25T15:21:51.199Z,20.83
2019-01-25T15:24:18.030Z,20.60
2019-01-25T15:26:44.558Z,20.50
2019-01-25T15:29:11.528Z,19.10
2019-01-25T15:31:38.422Z,19.37
2019-01-25T15:34:09.221Z,18.43
2019-01-25T15:36:36.153Z,18.47
2019-01-25T15:39:05.801Z,19.13
2019-01-25T15:41:32.888Z,19.67
2019-01-25T15:43:59.512Z,19.47
2019-01-25T15:46:27.563Z,19.27
2019-01-25T15:48:58.679Z,19.43
2019-01-25T15:51:27.631Z,22.03
2019-01-25T15:53:54.287Z,19.97
2019-01-25T15:56:21.189Z,19.00
2019-01-25T15:58:48.813Z,18.80
2019-01-25T16:01:20.089Z,18.90
2019-01-25T16:03:46.691Z,18.50
2019-01-25T16:06:17.108Z,17.40
2019-01-25T16:08:45.101Z,19.30
2019-01-25T16:11:15.720Z,18.53
2019-01-25T16:13:42.289Z,18.67
2019-01-25T16:16:09.262Z,19.50
2019-01-25T16:18:36.231Z,18.23
2019-01-25T16:21:03.367Z,19.83
2019-01-25T16:23:32.346Z,19.23
2019-01-25T16:26:01.169Z,20.63
2019-01-25T16:28:27.800Z,19.73
2019-01-25T16:30:55.474Z,21.17
2019-01-25T16:33:22.297Z,25.07
2019-01-25T16:35:49.073Z,30.20
2019-01-25T16:38:16.406Z,24.07
2019-01-25T16:40:43.168Z,25.00
2019-01-25T16:43:10.321Z,23.83
2019-01-25T16:45:39.189Z,18.87
2019-01-25T16:48:10.400Z,21.33
2019-01-25T16:50:37.521Z,22.00
2019-01-25T16:53:18.444Z,20.60
2019-01-25T16:55:45.366Z,20.03
2019-01-25T16:58:12.696Z,20.67
2019-01-25T17:00:44.373Z,21.80
2019-01-25T17:03:13.711Z,21.13
2019-01-25T17:05:41.430Z,17.67
2019-01-25T17:08:11.202Z,18.97
2019-01-25T17:10:38.401Z,21.70
2019-01-25T17:13:09.728Z,18.23
2019-01-25T17:15:37.727Z,20.77
2019-01-25T17:18:06.191Z,18.73
2019-01-25T17:20:39.029Z,18.67
2019-01-25T17:23:05.745Z,23.83
2019-01-25T17:25:34.268Z,23.97
2019-01-25T17:28:03.401Z,22.10
2019-01-25T17:30:34.054Z,20.67
2019-01-25T17:33:01.786Z,19.70
2019-01-25T17:35:31.012Z,18.40
2019-01-25T17:38:01.587Z,16.93
2019-01-25T17:40:30.885Z,19.20
2019-01-25T17:42:59.955Z,21.10
2019-01-25T17:45:29.870Z,23.93
2019-01-25T17:47:56.946Z,24.93
2019-01-25T17:50:23.575Z,21.37
2019-01-25T17:52:55.063Z,22.80
2019-01-25T17:55:22.841Z,26.03
2019-01-25T17:57:50.772Z,24.07
2019-01-25T18:00:31.101Z,20.27
2019-01-25T18:03:10.391Z,29.87
2019-01-25T18:05:37.332Z,19.57
2019-01-25T18:08:09.575Z,20.77
2019-01-25T18:10:37.479Z,18.20
2019-01-25T18:13:06.694Z,19.10
2019-01-25T18:15:41.350Z,18.90
2019-01-25T18:18:12.818Z,23.27
2019-01-25T18:20:39.470Z,21.63
2019-01-25T18:23:07.136Z,27.03
2019-01-25T18:25:47.708Z,19.67
2019-01-25T18:28:20.391Z,19.77
2019-01-25T18:31:02.966Z,20.60
2019-01-25T18:33:31.952Z,23.50
2019-01-25T18:36:02.142Z,17.60
2019-01-25T18:38:30.213Z,19.37
2019-01-25T18:41:18.607Z,20.43
2019-01-25T18:47:16.376Z,17.90
2019-01-25T18:50:13.992Z,18.37
2019-01-25T18:52:45.479Z,18.10
2019-01-25T18:55:15.260Z,16.77
2019-01-25T18:57:42.240Z,15.93
2019-01-25T19:00:36.614Z,15.53
2019-01-25T19:03:05.002Z,14.10
2019-01-25T19:05:32.866Z,16.77
2019-01-25T19:08:01.231Z,14.33
2019-01-25T19:10:34.223Z,15.60
2019-01-25T19:13:05.378Z,15.73
2019-01-25T19:15:36.663Z,16.27
2019-01-25T19:18:04.666Z,14.93
2019-01-25T19:20:36.145Z,15.50
2019-01-25T19:23:03.063Z,14.63
2019-01-25T19:25:31.108Z,14.30
2019-01-25T19:27:57.911Z,15.47
2019-01-25T19:30:34.516Z,13.07
2019-01-25T19:33:03.628Z,14.97
2019-01-25T19:35:33.035Z,13.07
2019-01-25T19:38:01.824Z,12.57
2019-01-25T19:40:31.800Z,12.77
2019-01-25T19:42:58.487Z,12.83
2019-01-25T19:45:25.485Z,13.80
2019-01-25T19:47:53.636Z,11.63
2019-01-25T19:50:26.379Z,14.20
2019-01-25T19:52:54.583Z,12.50
2019-01-25T19:55:27.437Z,12.33
2019-01-25T19:57:54.704Z,13.03
2019-01-25T20:00:26.941Z,11.10
2019-01-25T20:02:56.929Z,11.40
2019-01-25T20:05:25.998Z,10.63
2019-01-25T20:07:52.814Z,10.87
2019-01-25T20:10:21.890Z,11.50
2019-01-25T20:12:48.951Z,11.57
2019-01-25T20:15:19.597Z,10.30
2019-01-25T20:17:46.755Z,10.20
2019-01-25T20:20:17.725Z,9.70
2019-01-25T20:22:46.302Z,9.67
2019-01-25T20:25:19.835Z,9.43
2019-01-25T20:27:47.835Z,9.13
2019-01-25T20:30:24.461Z,8.67
2019-01-25T20:32:52.654Z,8.47
2019-01-25T20:35:30.577Z,9.27
2019-01-25T20:38:02.825Z,9.20
2019-01-25T20:40:31.192Z,9.57
2019-01-25T20:42:58.271Z,8.40
2019-01-25T20:45:27.939Z,7.83
2019-01-25T20:47:55.705Z,7.97
2019-01-25T20:50:27.948Z,7.50
2019-01-25T20:52:56.811Z,8.17
2019-01-25T20:55:25.930Z,7.93
2019-01-25T20:57:56.800Z,6.93
2019-01-25T21:00:53.998Z,6.70
2019-01-25T21:06:41.436Z,7.17
2019-01-25T21:09:10.549Z,6.30
2019-01-25T21:11:38.027Z,6.63
2019-01-25T21:14:16.506Z,7.57
2019-01-25T21:16:46.953Z,7.10
2019-01-25T21:19:14.720Z,6.77
2019-01-25T21:21:41.712Z,7.10
2019-01-25T21:24:10.065Z,5.87
2019-01-25T21:26:45.535Z,8.60
2019-01-25T21:29:14.534Z,6.60
2019-01-25T21:31:43.346Z,5.60
2019-01-25T21:34:14.729Z,5.80
2019-01-25T21:36:44.653Z,5.93
2019-01-25T21:39:13.179Z,8.07
2019-01-25T21:41:45.682Z,6.30
2019-01-25T21:44:13.615Z,6.03
2019-01-25T21:46:45.776Z,7.37
2019-01-25T21:49:20.927Z,7.13
2019-01-25T21:51:51.628Z,6.57
2019-01-25T21:54:21.842Z,6.07
2019-01-25T21:56:56.709Z,5.70
2019-01-25T21:59:26.268Z,5.50
2019-01-25T22:01:53.919Z,5.37
2019-01-25T22:04:23.346Z,5.33
2019-01-25T22:06:50.964Z,5.07
2019-01-25T22:12:40.860Z,5.50
2019-01-25T22:15:15.934Z,5.30
2019-01-25T22:17:49.006Z,5.57
2019-01-25T22:20:21.960Z,5.00
2019-01-25T22:23:06.580Z,5.70
2019-01-25T22:25:42.953Z,5.70
2019-01-25T22:28:28.756Z,5.77
2019-01-25T22:31:02.966Z,5.17
2019-01-25T22:33:30.382Z,5.23
2019-01-25T22:36:06.632Z,5.50
2019-01-25T22:38:34.852Z,4.50
2019-01-25T22:41:18.363Z,4.43
2019-01-25T22:43:50.117Z,5.00
2019-01-25T22:46:18.304Z,4.90
2019-01-25T22:48:52.223Z,5.23
2019-01-25T22:51:23.850Z,4.80
2019-01-25T22:53:51.245Z,4.27
2019-01-25T22:56:18.530Z,4.67
2019-01-25T22:58:47.622Z,4.70
2019-01-25T23:01:18.560Z,4.93
2019-01-25T23:03:57.010Z,4.40
2019-01-25T23:06:37.657Z,4.23
2019-01-25T23:09:12.843Z,4.53
2019-01-25T23:11:53.045Z,4.60
2019-01-25T23:14:21.432Z,4.70
2019-01-25T23:16:50.775Z,5.17
2019-01-25T23:19:20.105Z,4.47
2019-01-25T23:21:47.498Z,4.67
2019-01-25T23:24:14.943Z,3.87
2019-01-25T23:26:42.752Z,4.97
2019-01-25T23:29:13.954Z,5.00
2019-01-25T23:31:41.619Z,4.67
2019-01-25T23:34:10.028Z,5.03
2019-01-25T23:36:37.547Z,4.93
2019-01-25T23:39:08.660Z,5.47
2019-01-25T23:41:37.892Z,5.80
2019-01-25T23:44:05.186Z,6.07
2019-01-25T23:46:33.025Z,5.70
2019-01-25T23:49:13.686Z,5.67
2019-01-25T23:51:41.191Z,4.63
2019-01-25T23:54:09.061Z,4.80
2019-01-25T23:56:38.472Z,4.93
2019-01-25T23:59:10.302Z,5.33
